createdAt,value
2023-02-15T00:00:18.927Z,10.23
2023-02-15T00:02:47.300Z,10.60
2023-02-15T00:05:15.659Z,9.87
2023-02-15T00:07:45.350Z,11.13
2023-02-15T00:10:13.676Z,8.80
2023-02-15T00:12:41.998Z,9.10
2023-02-15T00:15:12.384Z,9.10
2023-02-15T00:17:40.732Z,9.50
2023-02-15T00:20:10.440Z,9.13
2023-02-15T00:22:39.511Z,9.43
2023-02-15T00:25:09.474Z,9.63
2023-02-15T00:27:37.810Z,10.07
2023-02-15T00:30:07.828Z,10.53
2023-02-15T00:32:36.269Z,11.00
2023-02-15T00:35:04.756Z,9.27
2023-02-15T00:37:33.084Z,9.33
2023-02-15T00:40:01.545Z,8.13
2023-02-15T00:42:33.271Z,8.90
2023-02-15T00:45:01.589Z,9.70
2023-02-15T00:47:30.654Z,9.47
2023-02-15T00:49:59.028Z,10.50
2023-02-15T00:52:27.371Z,10.67
2023-02-15T00:54:55.674Z,10.50
2023-02-15T00:57:23.988Z,10.03
2023-02-15T00:59:53.640Z,10.07
2023-02-15T01:02:21.997Z,10.67
2023-02-15T01:04:50.322Z,9.47
2023-02-15T01:07:18.824Z,10.03
2023-02-15T01:09:47.125Z,9.90
2023-02-15T01:12:15.604Z,8.43
2023-02-15T01:14:44.134Z,10.63
2023-02-15T01:17:13.762Z,9.13
2023-02-15T01:19:42.161Z,9.57
2023-02-15T01:22:10.523Z,10.30
2023-02-15T01:24:38.885Z,8.80
2023-02-15T01:27:07.203Z,10.40
2023-02-15T01:29:35.524Z,9.00
2023-02-15T01:32:04.436Z,10.37
2023-02-15T01:34:34.346Z,9.97
2023-02-15T01:37:02.750Z,9.87
2023-02-15T01:39:31.096Z,10.00
2023-02-15T01:41:59.375Z,11.30
2023-02-15T01:44:51.842Z,10.50
2023-02-15T01:47:30.210Z,11.23
2023-02-15T01:50:09.028Z,10.13
2023-02-15T01:52:43.997Z,9.00
2023-02-15T01:55:14.009Z,9.67
2023-02-15T01:57:43.131Z,10.07
2023-02-15T02:00:12.935Z,10.57
2023-02-15T02:02:41.891Z,9.03
2023-02-15T02:05:11.682Z,10.00
2023-02-15T02:07:43.784Z,10.00
2023-02-15T02:10:15.612Z,8.00
2023-02-15T02:12:46.262Z,8.37
2023-02-15T02:15:15.829Z,7.60
2023-02-15T02:18:00.774Z,9.53
2023-02-15T02:20:55.885Z,8.27
2023-02-15T02:23:40.742Z,7.80
2023-02-15T02:27:03.404Z,9.57
2023-02-15T02:30:27.673Z,9.27
2023-02-15T02:33:30.398Z,7.87
2023-02-15T02:36:09.087Z,9.50
2023-02-15T02:38:54.767Z,10.50
2023-02-15T02:41:33.115Z,11.03
2023-02-15T02:44:15.000Z,9.87
2023-02-15T02:46:52.794Z,9.47
2023-02-15T02:49:33.356Z,9.73
2023-02-15T02:52:03.178Z,9.67
2023-02-15T02:54:33.201Z,9.50
2023-02-15T02:57:06.482Z,10.37
2023-02-15T02:59:38.905Z,9.50
2023-02-15T03:02:14.055Z,10.00
2023-02-15T03:04:48.565Z,9.40
2023-02-15T03:07:23.009Z,9.80
2023-02-15T03:09:54.389Z,8.50
2023-02-15T03:12:26.446Z,10.47
2023-02-15T03:15:04.409Z,8.73
2023-02-15T03:17:36.542Z,10.43
2023-02-15T03:20:12.182Z,11.07
2023-02-15T03:22:48.074Z,9.73
2023-02-15T03:25:22.216Z,10.40
2023-02-15T03:27:55.523Z,9.50
2023-02-15T03:30:26.295Z,10.13
2023-02-15T03:33:01.209Z,9.87
2023-02-15T03:35:41.346Z,10.57
2023-02-15T03:38:11.336Z,9.70
2023-02-15T03:41:00.529Z,10.33
2023-02-15T03:43:45.370Z,10.37
2023-02-15T03:46:20.281Z,9.93
2023-02-15T03:48:54.433Z,8.17
2023-02-15T03:51:37.444Z,7.43
2023-02-15T03:54:10.201Z,7.97
2023-02-15T03:56:40.639Z,8.47
2023-02-15T03:59:26.545Z,9.33
2023-02-15T04:02:09.598Z,9.67
2023-02-15T04:04:40.216Z,8.40
2023-02-15T04:07:11.091Z,8.23
2023-02-15T04:09:57.107Z,8.53
2023-02-15T04:12:25.964Z,7.90
2023-02-15T04:15:11.897Z,8.17
2023-02-15T04:17:40.575Z,8.57
2023-02-15T04:20:27.925Z,8.87
2023-02-15T04:23:15.276Z,8.77
2023-02-15T04:25:43.581Z,8.30
2023-02-15T04:28:11.925Z,8.50
2023-02-15T04:30:40.259Z,8.87
2023-02-15T04:33:08.547Z,8.93
2023-02-15T04:35:36.827Z,8.77
2023-02-15T04:38:06.506Z,8.27
2023-02-15T04:40:34.773Z,7.77
2023-02-15T04:43:03.084Z,7.97
2023-02-15T04:45:31.381Z,8.27
2023-02-15T04:47:59.783Z,8.67
2023-02-15T04:50:28.130Z,7.23
2023-02-15T04:52:57.042Z,8.43
2023-02-15T04:55:27.931Z,8.37
2023-02-15T04:57:56.230Z,8.13
2023-02-15T05:00:24.742Z,7.70
2023-02-15T05:02:53.048Z,8.37
2023-02-15T05:05:21.415Z,7.50
2023-02-15T05:07:49.733Z,7.37
2023-02-15T05:10:18.314Z,8.63
2023-02-15T05:12:48.079Z,7.70
2023-02-15T05:15:16.556Z,7.63
2023-02-15T05:17:44.896Z,6.83
2023-02-15T05:20:13.700Z,8.00
2023-02-15T05:22:42.385Z,6.77
2023-02-15T05:25:29.149Z,7.87
2023-02-15T05:28:16.396Z,7.97
2023-02-15T05:30:44.977Z,8.00
2023-02-15T05:33:13.393Z,9.10
2023-02-15T05:35:41.757Z,9.97
2023-02-15T05:38:10.128Z,9.40
2023-02-15T05:40:38.432Z,8.87
2023-02-15T05:43:08.164Z,8.03
2023-02-15T05:45:36.530Z,8.33
2023-02-15T05:48:05.106Z,8.30
2023-02-15T05:50:33.438Z,9.07
2023-02-15T05:53:01.774Z,8.73
2023-02-15T05:55:30.124Z,9.13
2023-02-15T05:57:58.447Z,8.70
2023-02-15T06:00:28.135Z,8.97
2023-02-15T06:02:56.478Z,8.50
2023-02-15T06:05:24.858Z,8.63
2023-02-15T06:07:53.232Z,8.73
2023-02-15T06:10:21.927Z,8.80
2023-02-15T06:12:50.398Z,7.17
2023-02-15T06:15:18.930Z,8.63
2023-02-15T06:17:48.585Z,9.30
2023-02-15T06:20:17.083Z,8.40
2023-02-15T06:22:45.425Z,9.20
2023-02-15T06:25:13.718Z,8.00
2023-02-15T06:27:44.538Z,8.40
2023-02-15T06:30:14.952Z,9.40
2023-02-15T06:32:43.324Z,8.47
2023-02-15T06:35:13.058Z,7.43
2023-02-15T06:37:41.814Z,8.23
2023-02-15T06:40:11.424Z,7.73
2023-02-15T06:42:39.741Z,8.40
2023-02-15T06:45:09.072Z,9.43
2023-02-15T06:47:37.379Z,8.30
2023-02-15T06:50:07.138Z,9.00
2023-02-15T06:52:36.815Z,8.33
2023-02-15T06:55:05.699Z,9.27
2023-02-15T06:57:34.252Z,9.63
2023-02-15T07:00:02.699Z,9.50
2023-02-15T07:02:31.059Z,8.83
2023-02-15T07:04:59.608Z,9.37
2023-02-15T07:07:27.979Z,9.20
2023-02-15T07:09:57.657Z,9.83
2023-02-15T07:12:43.536Z,9.67
2023-02-15T07:15:14.149Z,10.20
2023-02-15T07:17:42.764Z,9.07
2023-02-15T07:20:14.506Z,9.63
2023-02-15T07:22:43.174Z,10.23
2023-02-15T07:25:14.239Z,9.90
2023-02-15T07:27:44.229Z,9.97
2023-02-15T07:30:15.444Z,10.57
2023-02-15T07:32:58.916Z,11.00
2023-02-15T07:35:27.577Z,9.77
2023-02-15T07:37:56.599Z,9.43
2023-02-15T07:40:26.454Z,10.40
2023-02-15T07:42:55.916Z,11.50
2023-02-15T07:45:24.707Z,10.63
2023-02-15T07:47:53.015Z,9.13
2023-02-15T07:50:21.318Z,9.97
2023-02-15T07:52:49.686Z,10.43
2023-02-15T07:55:19.573Z,10.17
2023-02-15T07:57:51.422Z,9.87
2023-02-15T08:00:24.510Z,10.60
2023-02-15T08:03:09.240Z,10.33
2023-02-15T08:05:37.984Z,9.20
2023-02-15T08:08:06.806Z,9.07
2023-02-15T08:10:53.285Z,9.60
2023-02-15T08:13:22.984Z,9.83
2023-02-15T08:15:51.801Z,10.53
2023-02-15T08:18:20.273Z,9.43
2023-02-15T08:20:51.980Z,10.60
2023-02-15T08:23:20.414Z,9.23
2023-02-15T08:25:48.773Z,9.63
2023-02-15T08:28:17.080Z,9.80
2023-02-15T08:30:46.818Z,11.13
2023-02-15T08:33:15.165Z,11.67
2023-02-15T08:35:43.504Z,11.73
2023-02-15T08:38:11.816Z,10.63
2023-02-15T08:40:40.169Z,12.70
2023-02-15T08:43:08.473Z,11.70
2023-02-15T08:45:36.921Z,11.47
2023-02-15T08:48:07.156Z,12.90
2023-02-15T08:50:35.466Z,12.30
2023-02-15T08:53:04.766Z,10.40
2023-02-15T08:55:33.122Z,11.20
2023-02-15T08:58:01.455Z,10.77
2023-02-15T09:00:30.072Z,11.27
2023-02-15T09:02:58.408Z,10.30
2023-02-15T09:05:28.172Z,10.00
2023-02-15T09:07:56.517Z,11.37
2023-02-15T09:10:24.855Z,10.77
2023-02-15T09:12:54.020Z,10.23
2023-02-15T09:15:22.393Z,11.07
2023-02-15T09:17:50.735Z,10.70
2023-02-15T09:20:19.362Z,9.83
2023-02-15T09:22:49.120Z,11.40
2023-02-15T09:25:17.729Z,10.90
2023-02-15T09:27:46.118Z,11.80
2023-02-15T09:30:15.882Z,11.07
2023-02-15T09:32:44.270Z,10.73
2023-02-15T09:35:12.625Z,10.93
2023-02-15T09:37:40.982Z,10.63
2023-02-15T09:40:13.945Z,11.20
2023-02-15T09:43:03.565Z,11.17
2023-02-15T09:45:47.916Z,10.83
2023-02-15T09:48:40.738Z,12.43
2023-02-15T09:51:37.937Z,10.90
2023-02-15T09:54:28.718Z,12.37
2023-02-15T09:57:05.502Z,12.23
2023-02-15T09:59:45.222Z,10.97
2023-02-15T10:02:36.907Z,11.13
2023-02-15T10:05:25.769Z,11.33
2023-02-15T10:08:34.397Z,10.83
2023-02-15T10:11:30.513Z,11.40
2023-02-15T10:14:18.336Z,10.33
2023-02-15T10:16:58.929Z,11.93
2023-02-15T10:19:41.376Z,10.30
2023-02-15T10:22:27.213Z,11.37
2023-02-15T10:25:18.211Z,11.00
2023-02-15T10:27:49.115Z,10.23
2023-02-15T10:30:27.849Z,11.40
2023-02-15T10:33:03.455Z,10.80
2023-02-15T10:35:42.550Z,11.83
2023-02-15T10:38:30.414Z,12.67
2023-02-15T10:41:11.767Z,12.63
2023-02-15T10:44:05.219Z,11.67
2023-02-15T10:46:53.740Z,17.10
2023-02-15T10:50:07.527Z,14.90
2023-02-15T10:52:50.161Z,14.70
2023-02-15T10:55:26.888Z,15.27
2023-02-15T10:58:06.220Z,15.97
2023-02-15T11:00:43.369Z,16.33
2023-02-15T11:03:35.701Z,16.37
2023-02-15T11:06:08.190Z,16.97
2023-02-15T11:08:42.947Z,17.27
2023-02-15T11:11:16.427Z,16.63
2023-02-15T11:13:50.225Z,19.30
2023-02-15T11:16:23.488Z,19.33
2023-02-15T11:18:58.497Z,18.10
2023-02-15T11:21:31.575Z,17.00
2023-02-15T11:24:01.673Z,16.03
2023-02-15T11:26:36.575Z,16.97
2023-02-15T11:29:14.576Z,16.80
2023-02-15T11:31:47.391Z,17.43
2023-02-15T11:34:25.414Z,15.90
2023-02-15T11:36:56.759Z,16.50
2023-02-15T11:39:29.576Z,15.77
2023-02-15T11:42:02.346Z,16.43
2023-02-15T11:44:35.196Z,15.80
2023-02-15T11:47:03.707Z,18.17
2023-02-15T11:49:36.020Z,16.13
2023-02-15T11:52:09.410Z,15.90
2023-02-15T11:54:42.614Z,16.87
2023-02-15T11:57:21.303Z,17.33
2023-02-15T11:59:58.369Z,17.80
2023-02-15T12:02:28.582Z,16.67
2023-02-15T12:05:02.643Z,17.17
2023-02-15T12:07:37.445Z,15.87
2023-02-15T12:10:17.460Z,16.13
2023-02-15T12:12:45.892Z,16.33
2023-02-15T12:15:15.739Z,15.97
2023-02-15T12:17:53.177Z,13.90
2023-02-15T12:20:31.797Z,16.17
2023-02-15T12:23:04.339Z,16.87
2023-02-15T12:25:39.408Z,19.17
2023-02-15T12:28:26.073Z,15.80
2023-02-15T12:30:55.827Z,13.60
2023-02-15T12:33:32.289Z,19.23
2023-02-15T12:36:08.396Z,19.23
2023-02-15T12:38:36.794Z,17.97
2023-02-15T12:41:11.219Z,17.50
2023-02-15T12:43:40.546Z,19.60
2023-02-15T12:46:26.435Z,17.50
2023-02-15T12:49:20.772Z,16.90
2023-02-15T12:51:53.119Z,15.63
2023-02-15T12:54:42.445Z,16.33
2023-02-15T12:57:32.826Z,15.23
2023-02-15T13:00:04.024Z,18.63
2023-02-15T13:02:41.155Z,17.97
2023-02-15T13:05:21.593Z,16.87
2023-02-15T13:07:56.256Z,16.30
2023-02-15T13:10:28.563Z,17.47
2023-02-15T13:12:58.889Z,16.77
2023-02-15T13:15:33.691Z,18.27
2023-02-15T13:18:04.045Z,18.50
2023-02-15T13:20:33.938Z,17.13
2023-02-15T13:23:08.911Z,21.27
2023-02-15T13:25:51.138Z,20.77
2023-02-15T13:28:25.184Z,18.80
2023-02-15T13:30:54.230Z,18.83
2023-02-15T13:33:30.252Z,19.07
2023-02-15T13:36:08.978Z,19.80
2023-02-15T13:38:57.741Z,18.80
2023-02-15T13:41:36.436Z,19.47
2023-02-15T13:44:17.298Z,19.77
2023-02-15T13:47:04.636Z,21.40
2023-02-15T13:49:50.020Z,20.37
2023-02-15T13:52:24.076Z,19.93
2023-02-15T13:55:22.547Z,19.83
2023-02-15T13:58:20.425Z,20.80
2023-02-15T14:00:58.926Z,20.47
2023-02-15T14:03:57.158Z,21.23
2023-02-15T14:06:49.617Z,20.57
2023-02-15T14:09:33.295Z,21.70
2023-02-15T14:12:29.910Z,20.93
2023-02-15T14:15:16.990Z,21.07
2023-02-15T14:17:58.688Z,19.97
2023-02-15T14:20:43.649Z,20.07
2023-02-15T14:23:31.152Z,21.70
2023-02-15T14:26:04.807Z,20.17
2023-02-15T14:28:45.462Z,20.87
2023-02-15T14:31:17.407Z,20.87
2023-02-15T14:34:10.493Z,22.13
2023-02-15T14:36:38.952Z,21.73
2023-02-15T14:39:48.806Z,22.47
2023-02-15T14:42:26.227Z,21.23
2023-02-15T14:45:04.281Z,22.03
2023-02-15T14:47:39.432Z,23.13
2023-02-15T14:50:45.009Z,23.53
2023-02-15T14:53:39.973Z,22.73
2023-02-15T14:56:25.563Z,24.23
2023-02-15T14:59:18.324Z,22.83
2023-02-15T15:01:59.465Z,23.70
2023-02-15T15:04:33.062Z,22.80
2023-02-15T15:07:11.220Z,22.67
2023-02-15T15:09:41.646Z,21.80
2023-02-15T15:12:40.706Z,21.70
2023-02-15T15:15:16.486Z,22.83
2023-02-15T15:18:01.869Z,22.97
2023-02-15T15:20:46.793Z,23.30
2023-02-15T15:23:46.508Z,22.87
2023-02-15T15:26:31.695Z,24.47
2023-02-15T15:29:02.854Z,23.47
2023-02-15T15:31:46.303Z,23.43
2023-02-15T15:35:01.964Z,22.83
2023-02-15T15:38:16.238Z,21.87
2023-02-15T15:41:05.670Z,22.40
2023-02-15T15:44:01.035Z,22.30
2023-02-15T15:47:10.414Z,23.97
2023-02-15T15:49:41.151Z,23.73
2023-02-15T15:52:17.235Z,23.17
2023-02-15T15:54:49.320Z,24.90
2023-02-15T15:57:23.063Z,22.87
2023-02-15T15:59:52.024Z,24.90
2023-02-15T16:02:20.475Z,25.23
2023-02-15T16:04:50.316Z,23.50
2023-02-15T16:07:27.773Z,23.50
2023-02-15T16:09:58.771Z,24.53
2023-02-15T16:12:29.433Z,22.97
2023-02-15T16:14:59.354Z,23.27
2023-02-15T16:17:32.652Z,22.93
2023-02-15T16:20:09.910Z,22.57
2023-02-15T16:22:40.710Z,23.63
2023-02-15T16:25:33.938Z,22.70
2023-02-15T16:28:09.827Z,24.63
2023-02-15T16:30:40.756Z,23.20
2023-02-15T16:33:11.194Z,21.20
2023-02-15T16:35:43.502Z,21.90
2023-02-15T16:38:12.862Z,23.27
2023-02-15T16:40:53.169Z,23.43
2023-02-15T16:43:27.225Z,25.17
2023-02-15T16:46:06.404Z,23.90
2023-02-15T16:48:41.174Z,24.63
2023-02-15T16:51:11.776Z,24.70
2023-02-15T16:53:40.194Z,25.53
2023-02-15T16:56:08.699Z,23.10
2023-02-15T16:58:41.967Z,25.17
2023-02-15T17:01:13.128Z,24.80
2023-02-15T17:03:43.980Z,23.43
2023-02-15T17:06:24.485Z,24.50
2023-02-15T17:08:52.825Z,26.07
2023-02-15T17:11:22.807Z,25.80
2023-02-15T17:14:16.353Z,24.83
2023-02-15T17:16:50.336Z,25.77
2023-02-15T17:19:24.202Z,24.27
2023-02-15T17:21:57.198Z,25.00
2023-02-15T17:24:37.382Z,24.63
2023-02-15T17:27:14.214Z,24.37
2023-02-15T17:29:46.527Z,23.97
2023-02-15T17:32:21.731Z,23.80
2023-02-15T17:35:04.002Z,24.17
2023-02-15T17:37:46.892Z,26.33
2023-02-15T17:40:24.575Z,27.83
2023-02-15T17:42:53.368Z,27.47
2023-02-15T17:45:27.675Z,28.63
2023-02-15T17:47:58.168Z,26.13
2023-02-15T17:50:29.807Z,26.63
2023-02-15T17:53:03.173Z,27.70
2023-02-15T17:55:36.585Z,26.00
2023-02-15T17:58:08.642Z,25.47
2023-02-15T18:00:58.497Z,25.93
2023-02-15T18:03:58.578Z,26.13
2023-02-15T18:06:44.652Z,23.67
2023-02-15T18:09:34.844Z,24.10
2023-02-15T18:12:19.865Z,23.70
2023-02-15T18:14:48.427Z,24.20
2023-02-15T18:17:18.226Z,23.07
2023-02-15T18:19:48.346Z,21.23
2023-02-15T18:22:19.786Z,26.93
2023-02-15T18:24:51.199Z,24.70
2023-02-15T18:27:21.261Z,24.93
2023-02-15T18:29:49.705Z,26.00
2023-02-15T18:32:23.196Z,25.93
2023-02-15T18:34:52.371Z,25.87
2023-02-15T18:37:23.653Z,26.70
2023-02-15T18:39:55.054Z,25.33
2023-02-15T18:42:27.124Z,26.17
2023-02-15T18:44:58.392Z,21.77
2023-02-15T18:47:27.767Z,23.90
2023-02-15T18:49:56.520Z,25.63
2023-02-15T18:52:28.605Z,26.93
2023-02-15T18:55:02.434Z,26.90
2023-02-15T18:57:31.317Z,29.53
2023-02-15T18:59:59.884Z,27.60
2023-02-15T19:02:29.144Z,27.57
2023-02-15T19:04:57.505Z,29.40
2023-02-15T19:07:29.851Z,31.10
2023-02-15T19:10:02.648Z,31.43
2023-02-15T19:12:31.379Z,32.33
2023-02-15T19:14:59.865Z,30.27
2023-02-15T19:17:28.198Z,29.40
2023-02-15T19:19:56.819Z,28.73
2023-02-15T19:22:30.756Z,28.37
2023-02-15T19:25:04.497Z,28.53
2023-02-15T19:27:36.003Z,26.97
2023-02-15T19:30:12.805Z,30.23
2023-02-15T19:32:41.153Z,31.17
2023-02-15T19:35:15.776Z,29.33
2023-02-15T19:37:47.919Z,28.43
2023-02-15T19:40:25.287Z,26.60
2023-02-15T19:42:54.405Z,24.87
2023-02-15T19:45:25.341Z,24.40
2023-02-15T19:47:56.871Z,23.30
2023-02-15T19:50:27.677Z,20.40
2023-02-15T19:52:56.055Z,25.03
2023-02-15T19:55:29.249Z,24.47
2023-02-15T19:57:59.610Z,23.77
2023-02-15T20:00:30.423Z,22.97
2023-02-15T20:02:59.852Z,21.13
2023-02-15T20:05:30.012Z,22.63
2023-02-15T20:07:59.295Z,20.30
2023-02-15T20:10:33.288Z,22.67
2023-02-15T20:13:02.532Z,21.67
2023-02-15T20:15:33.465Z,21.57
2023-02-15T20:18:04.275Z,22.47
2023-02-15T20:20:41.100Z,21.43
2023-02-15T20:23:20.446Z,21.20
2023-02-15T20:25:50.832Z,20.30
2023-02-15T20:28:21.266Z,19.47
2023-02-15T20:30:50.555Z,21.90
2023-02-15T20:33:20.306Z,21.13
2023-02-15T20:35:49.551Z,19.80
2023-02-15T20:38:21.870Z,21.60
2023-02-15T20:41:09.517Z,25.07
2023-02-15T20:43:38.071Z,22.97
2023-02-15T20:46:07.726Z,21.67
2023-02-15T20:48:36.741Z,20.87
2023-02-15T20:51:13.362Z,20.53
2023-02-15T20:53:41.821Z,20.13
2023-02-15T20:56:19.910Z,21.13
2023-02-15T20:58:48.801Z,19.63
2023-02-15T21:01:19.888Z,18.43
2023-02-15T21:03:49.098Z,19.77
2023-02-15T21:06:18.498Z,18.20
2023-02-15T21:08:46.941Z,19.47
2023-02-15T21:11:21.523Z,19.83
2023-02-15T21:13:51.713Z,19.83
2023-02-15T21:16:20.292Z,19.10
2023-02-15T21:18:48.901Z,20.53
2023-02-15T21:21:24.010Z,20.67
2023-02-15T21:23:53.989Z,20.00
2023-02-15T21:26:24.927Z,20.67
2023-02-15T21:28:53.496Z,19.47
2023-02-15T21:31:24.734Z,19.27
2023-02-15T21:33:53.434Z,19.60
2023-02-15T21:36:25.247Z,17.80
2023-02-15T21:38:54.337Z,18.50
2023-02-15T21:41:43.093Z,17.63
2023-02-15T21:44:36.606Z,16.30
2023-02-15T21:47:22.592Z,17.07
2023-02-15T21:49:50.958Z,17.27
2023-02-15T21:52:23.787Z,16.60
2023-02-15T21:54:52.125Z,14.30
2023-02-15T21:57:22.438Z,17.50
2023-02-15T21:59:50.984Z,15.90
2023-02-15T22:02:29.365Z,17.83
2023-02-15T22:04:59.448Z,17.83
2023-02-15T22:07:27.837Z,16.47
2023-02-15T22:09:56.172Z,14.30
2023-02-15T22:12:25.910Z,15.93
2023-02-15T22:14:55.502Z,15.50
2023-02-15T22:17:28.996Z,15.07
2023-02-15T22:19:57.916Z,14.83
2023-02-15T22:22:26.240Z,14.30
2023-02-15T22:24:54.540Z,15.10
2023-02-15T22:27:27.597Z,15.03
2023-02-15T22:29:56.814Z,14.37
2023-02-15T22:32:27.486Z,16.27
2023-02-15T22:34:56.260Z,14.50
2023-02-15T22:37:24.546Z,13.57
2023-02-15T22:39:52.896Z,12.47
2023-02-15T22:42:28.011Z,12.10
2023-02-15T22:44:58.433Z,10.53
2023-02-15T22:47:29.369Z,11.90
2023-02-15T22:49:57.659Z,13.17
2023-02-15T22:52:26.182Z,12.83
2023-02-15T22:54:54.454Z,11.40
2023-02-15T22:57:30.526Z,11.07
2023-02-15T23:00:00.644Z,11.63
2023-02-15T23:02:29.093Z,10.70
2023-02-15T23:04:57.409Z,12.07
2023-02-15T23:07:25.774Z,11.70
2023-02-15T23:09:54.095Z,12.47
2023-02-15T23:12:28.115Z,11.00
2023-02-15T23:14:58.421Z,12.83
2023-02-15T23:17:26.754Z,10.53
2023-02-15T23:19:55.016Z,10.80
2023-02-15T23:22:23.321Z,11.77
2023-02-15T23:24:53.971Z,11.60
2023-02-15T23:27:39.899Z,11.87
2023-02-15T23:30:15.406Z,11.27
2023-02-15T23:32:43.769Z,11.53
2023-02-15T23:35:16.232Z,11.83
2023-02-15T23:37:44.779Z,12.07
2023-02-15T23:40:33.752Z,12.80
2023-02-15T23:43:02.152Z,10.73
2023-02-15T23:45:37.208Z,11.80
2023-02-15T23:48:33.538Z,11.83
2023-02-15T23:51:02.261Z,10.63
2023-02-15T23:53:31.544Z,10.73
2023-02-15T23:56:05.004Z,12.07
2023-02-15T23:58:38.212Z,11.37
